.
WxDataArchive / Data Records for 2010-07-24
2010-07-23 July 2010 2010-07-25

Data Records for Saturday, 24 July 2010

Time	Temp	Chill	HIndex	Humid	Dewpt	 Wind 	HiWind	WindDir	Rain 	Barom 
-----	----	-----	------	-----	-----	------	------	-------	-----	----- 
00:00	77.2	77.2	78.8	83	71.6	0	0	---	0.00	29.945 
00:05	77.0	77.0	78.4	84	71.8	0	0	---	0.00	29.945 
00:10	76.8	76.8	78.1	84	71.6	0	0	---	0.00	29.945 
00:15	76.8	76.8	78.1	84	71.6	1	3	270	0.00	29.936 
00:20	76.7	76.7	77.8	85	71.8	0	1	22	0.00	29.936 
00:25	76.5	76.5	77.5	85	71.6	0	0	---	0.00	29.936 
00:30	76.3	76.3	77.0	86	71.8	0	2	22	0.00	29.932 
00:35	76.1	76.1	76.6	86	71.6	0	1	22	0.00	29.932 
00:40	76.1	76.1	76.6	86	71.6	0	0	---	0.00	29.932 
00:45	76.0	76.0	76.5	86	71.5	0	0	---	0.00	29.919 
00:50	76.0	76.0	76.5	86	71.5	0	2	22	0.00	29.919 
00:55	75.8	75.8	76.1	86	71.3	0	0	---	0.00	29.919 
01:00	75.6	75.6	75.6	87	71.4	0	1	22	0.00	29.905 
01:05	75.4	75.4	75.3	87	71.2	0	0	---	0.00	29.905 
01:10	75.4	75.4	75.3	87	71.2	0	1	22	0.00	29.905 
01:15	75.3	75.3	75.0	88	71.5	0	0	---	0.00	29.911 
01:20	75.3	75.3	75.0	88	71.5	0	0	---	0.00	29.911 
01:25	75.3	75.3	75.0	88	71.5	0	0	---	0.00	29.911 
01:30	75.1	75.1	74.6	88	71.3	0	0	---	0.00	29.908 
01:35	75.1	75.1	74.6	88	71.3	0	0	---	0.00	29.908 
01:40	75.1	75.1	74.6	88	71.3	0	1	22	0.00	29.908 
01:45	75.3	75.3	75.0	88	71.5	0	1	22	0.00	29.911 
01:50	75.3	75.3	75.1	87	71.2	0	1	22	0.00	29.911 
01:55	75.4	75.4	75.5	85	70.6	0	1	22	0.00	29.911 
02:00	75.6	75.6	76.0	84	70.4	0	2	248	0.00	29.903 
02:05	75.8	75.8	76.4	83	70.3	0	1	248	0.00	29.903 
02:10	76.0	76.0	76.8	82	70.1	0	2	248	0.00	29.903 
02:15	76.1	76.1	77.0	82	70.2	0	2	248	0.00	29.909 
02:20	76.1	76.1	77.0	82	70.2	0	1	248	0.00	29.909 
02:25	76.1	76.1	77.0	82	70.2	0	1	248	0.00	29.909 
02:30	76.1	76.1	76.9	83	70.5	0	1	248	0.00	29.911 
02:35	76.0	76.0	76.7	83	70.4	0	1	248	0.00	29.911 
02:40	76.0	76.0	76.8	82	70.1	0	1	248	0.00	29.911 
02:45	76.0	76.0	76.8	82	70.1	0	2	248	0.00	29.909 
02:50	76.0	76.0	76.8	82	70.1	0	1	248	0.00	29.909 
02:55	76.0	76.0	76.8	82	70.1	0	2	248	0.00	29.909 
03:00	75.8	75.8	76.5	82	69.9	0	1	248	0.00	29.914 
03:05	75.8	75.8	76.5	82	69.9	0	0	---	0.00	29.914 
03:10	75.6	75.6	76.2	82	69.7	0	0	---	0.00	29.914 
03:15	75.4	75.4	75.8	83	69.9	0	0	---	0.00	29.899 
03:20	75.4	75.4	75.8	83	69.9	0	0	---	0.00	29.899 
03:25	75.3	75.3	75.5	84	70.1	0	0	---	0.00	29.899 
03:30	75.3	75.3	75.5	84	70.1	0	0	---	0.00	29.892 
03:35	75.1	75.1	75.2	84	69.9	0	1	248	0.00	29.892 
03:40	75.1	75.1	75.0	85	70.3	0	0	---	0.00	29.892 
03:45	74.9	74.9	74.9	85	70.1	0	0	---	0.00	29.885 
03:50	74.9	74.9	74.9	86	70.4	0	0	---	0.00	29.885 
03:55	74.7	74.7	74.7	86	70.2	0	0	---	0.00	29.885 
04:00	74.7	74.7	74.7	86	70.2	0	1	248	0.00	29.893 
04:05	74.6	74.6	74.6	87	70.5	0	1	248	0.00	29.893 
04:10	74.7	74.7	74.7	87	70.6	0	1	248	0.00	29.893 
04:15	74.7	74.7	74.7	87	70.6	0	1	248	0.00	29.893 
04:20	75.1	75.1	74.6	88	71.3	0	2	248	0.01	29.893 
04:25	75.1	75.1	74.4	89	71.6	0	2	248	0.02	29.893 
04:30	74.9	74.9	74.9	90	71.8	0	3	90	0.03	29.915 
04:35	74.7	74.7	74.7	91	71.9	1	3	292	0.00	29.915 
04:40	74.6	74.6	74.6	92	72.1	0	1	292	0.08	29.915 
04:45	74.2	74.2	74.2	92	71.7	0	1	292	0.00	29.901 
04:50	73.9	73.9	73.9	92	71.4	0	1	292	0.00	29.901 
04:55	73.9	73.9	73.9	92	71.4	0	0	---	0.01	29.901 
05:00	73.7	73.7	73.7	93	71.5	0	0	---	0.00	29.899 
05:05	73.5	73.5	73.5	93	71.3	0	1	292	0.00	29.899 
05:10	73.5	73.5	73.5	93	71.3	0	1	292	0.00	29.899 
05:15	73.3	73.3	73.3	93	71.1	0	1	292	0.00	29.890 
05:20	73.3	73.3	73.3	93	71.1	0	2	292	0.00	29.890 
05:25	73.5	73.5	73.5	94	71.7	2	3	292	0.00	29.890 
05:30	73.3	73.3	73.3	94	71.5	0	3	292	0.00	29.916 
05:35	73.2	73.2	73.2	94	71.4	0	1	292	0.00	29.916 
05:40	73.2	73.2	73.2	94	71.4	0	0	---	0.00	29.916 
05:45	73.0	73.0	73.0	94	71.2	0	0	---	0.00	29.914 
05:50	73.0	73.0	73.0	94	71.2	0	0	---	0.00	29.914 
05:55	73.2	73.2	73.2	94	71.4	0	0	---	0.00	29.914 
06:00	73.2	73.2	73.2	94	71.4	0	0	---	0.00	29.907 
06:05	73.2	73.2	73.2	95	71.7	0	0	---	0.00	29.907 
06:10	73.2	73.2	73.2	95	71.7	0	0	---	0.00	29.907 
06:15	73.3	73.3	73.3	95	71.8	0	0	---	0.00	29.901 
06:20	73.3	73.3	73.3	95	71.8	0	0	---	0.00	29.901 
06:25	73.3	73.3	73.3	95	71.8	0	1	292	0.00	29.901 
06:30	73.5	73.5	73.5	95	72.0	0	0	---	0.00	29.896 
06:35	73.5	73.5	73.5	95	72.0	0	0	---	0.00	29.896 
06:40	73.5	73.5	73.5	95	72.0	0	0	---	0.00	29.896 
06:45	73.5	73.5	73.5	95	72.0	0	1	292	0.00	29.891 
06:50	73.5	73.5	73.5	95	72.0	0	1	292	0.00	29.891 
06:55	73.5	73.5	73.5	95	72.0	0	1	292	0.00	29.891 
07:00	73.5	73.5	73.5	95	72.0	0	3	292	0.00	29.886 
07:05	73.5	73.5	73.5	95	72.0	0	1	292	0.00	29.886 
07:10	73.5	73.5	73.5	95	72.0	0	1	292	0.00	29.886 
07:15	73.7	73.7	73.7	95	72.2	0	1	292	0.00	29.883 
07:20	73.7	73.7	73.7	95	72.2	0	2	292	0.00	29.883 
07:25	73.7	73.7	73.7	95	72.2	0	1	292	0.00	29.883 
07:30	73.7	73.7	73.7	95	72.2	0	2	292	0.00	29.881 
07:35	73.7	73.7	73.7	95	72.2	0	1	292	0.00	29.881 
07:40	73.9	73.9	73.9	95	72.4	0	1	292	0.00	29.881 
07:45	73.9	73.9	73.9	95	72.4	0	2	292	0.00	29.872 
07:50	73.9	73.9	73.9	95	72.4	0	2	315	0.00	29.872 
07:55	73.9	73.9	73.9	95	72.4	0	2	315	0.00	29.872 
08:00	73.9	73.9	73.9	95	72.4	0	1	315	0.00	29.874 
08:05	74.0	74.0	74.0	95	72.5	0	1	315	0.00	29.874 
08:10	74.0	74.0	74.0	95	72.5	0	1	315	0.00	29.874 
08:15	74.2	74.2	74.2	95	72.7	0	1	315	0.00	29.884 
08:20	74.4	74.4	74.4	95	72.9	0	1	315	0.00	29.884 
08:25	74.6	74.6	74.6	95	73.1	0	1	315	0.00	29.884 
08:30	74.7	74.7	74.7	95	73.2	0	2	45	0.00	29.884 
08:35	75.3	75.3	73.8	95	73.8	0	2	45	0.00	29.884 
08:40	76.0	76.0	75.6	94	74.1	0	2	45	0.00	29.884 
08:45	76.5	76.5	76.8	93	74.3	0	2	45	0.00	29.883 
08:50	76.8	76.8	77.6	92	74.3	0	3	112	0.00	29.883 
08:55	77.4	77.4	79.1	91	74.6	0	2	112	0.00	29.883 
09:00	77.7	77.7	79.8	90	74.5	0	3	112	0.00	29.883 
09:05	77.9	77.9	80.3	90	74.7	0	2	90	0.00	29.883 
09:10	78.1	78.1	80.7	89	74.6	1	3	112	0.00	29.883 
09:15	77.9	77.9	80.2	89	74.4	1	3	248	0.00	29.903 
09:20	78.1	78.1	80.7	89	74.6	0	2	248	0.00	29.903 
09:25	78.5	78.5	81.7	89	75.0	1	4	248	0.00	29.903 
09:30	78.6	78.6	81.9	88	74.7	1	3	270	0.00	29.911 
09:35	79.2	79.2	83.3	88	75.3	0	2	270	0.00	29.911 
09:40	79.6	79.6	84.2	87	75.4	1	4	248	0.00	29.911 
09:45	79.8	79.8	84.4	85	74.9	2	4	248	0.00	29.911 
09:50	80.1	80.1	85.0	84	74.8	2	4	270	0.00	29.911 
09:55	80.3	80.3	85.5	84	75.0	2	4	248	0.00	29.911 
10:00	80.3	80.3	85.5	84	75.0	1	5	270	0.00	29.916 
10:05	80.5	80.5	85.8	83	74.8	2	4	270	0.00	29.916 
10:10	80.9	80.9	86.8	83	75.2	1	3	270	0.00	29.916 
10:15	81.4	81.4	87.8	82	75.4	2	5	270	0.00	29.916 
10:20	81.8	81.8	88.5	81	75.4	2	5	248	0.00	29.916 
10:25	82.2	82.2	89.5	81	75.8	2	5	248	0.00	29.916 
10:30	82.6	82.6	90.3	80	75.8	3	7	270	0.00	29.917 
10:35	82.8	82.8	90.5	79	75.6	2	6	270	0.00	29.917 
10:40	82.6	82.6	89.7	78	75.0	4	7	270	0.00	29.917 
10:45	82.6	82.6	90.0	79	75.4	2	4	270	0.00	29.917 
10:50	83.2	83.2	90.9	77	75.2	2	5	248	0.00	29.917 
10:55	84.0	84.0	92.2	75	75.2	2	6	270	0.00	29.917 
11:00	84.7	84.7	93.5	74	75.5	2	5	270	0.00	29.900 
11:05	85.1	85.1	94.1	73	75.4	3	7	270	0.00	29.900 
11:10	85.3	85.3	93.8	71	74.8	3	6	270	0.00	29.900 
11:15	85.5	85.5	93.9	70	74.6	4	9	270	0.00	29.909 
11:20	85.7	85.7	94.3	70	74.8	4	10	270	0.00	29.909 
11:25	85.9	85.9	94.8	70	74.9	3	7	270	0.00	29.909 
11:30	86.1	86.1	94.9	69	74.7	3	6	270	0.00	29.904 
11:35	86.3	86.3	94.9	68	74.5	4	9	270	0.00	29.904 
11:40	86.5	86.5	94.5	66	73.8	4	10	248	0.00	29.904 
11:45	86.7	86.7	95.0	66	73.9	3	7	270	0.00	29.892 
11:50	87.0	87.0	95.2	65	73.8	4	7	270	0.00	29.892 
11:55	87.4	87.4	96.1	65	74.2	2	6	248	0.00	29.892 
12:00	87.8	87.8	95.6	62	73.1	3	7	270	0.00	29.885 
12:05	88.0	88.0	96.1	62	73.3	3	7	270	0.00	29.885 
12:10	88.4	88.4	96.5	61	73.2	3	10	270	0.00	29.885 
12:15	88.4	88.4	97.0	62	73.7	3	8	270	0.00	29.871 
12:20	88.6	88.6	97.0	61	73.4	4	9	270	0.00	29.871 
12:25	89.0	89.0	98.4	62	74.3	2	6	270	0.00	29.871 
12:30	88.8	88.8	96.9	60	73.1	4	8	248	0.00	29.859 
12:35	89.0	89.0	97.9	61	73.8	2	6	248	0.00	29.859 
12:40	89.3	89.3	98.0	60	73.6	3	7	270	0.00	29.859 
12:45	88.8	88.8	97.4	61	73.6	3	9	248	0.00	29.855 
12:50	89.0	89.0	97.4	60	73.3	2	5	248	0.00	29.855 
12:55	89.5	89.5	97.4	58	72.7	3	7	270	0.00	29.855 
13:00	90.1	90.1	98.3	57	72.8	3	6	270	0.00	29.837 
13:05	90.1	90.1	96.7	54	71.2	3	7	270	0.00	29.837 
13:10	89.7	89.7	97.4	57	72.4	3	7	248	0.00	29.837 
13:15	89.7	89.7	97.4	57	72.4	3	10	270	0.00	29.823 
13:20	89.9	89.9	97.3	56	72.1	3	10	248	0.00	29.823 
13:25	90.3	90.3	98.7	57	73.0	2	7	270	0.00	29.823 
13:30	90.5	90.5	99.7	58	73.7	3	7	270	0.00	29.823 
13:35	90.5	90.5	100.3	59	74.2	3	7	270	0.00	29.823 
13:40	90.7	90.7	99.6	57	73.3	3	7	270	0.00	29.823 
13:45	91.0	91.0	98.6	54	72.0	3	6	270	0.00	29.817 
13:50	91.4	91.4	100.1	55	72.9	2	5	248	0.00	29.817 
13:55	91.8	91.8	101.0	55	73.3	2	5	248	0.00	29.817 
14:00	92.1	92.1	101.1	54	73.0	3	6	270	0.00	29.818 
14:05	92.3	92.3	101.5	54	73.2	3	7	270	0.00	29.818 
14:10	92.7	92.7	100.0	50	71.3	3	7	270	0.00	29.818 
14:15	92.7	92.7	100.0	50	71.3	3	9	270	0.00	29.822 
14:20	92.7	92.7	98.9	48	70.1	4	10	248	0.00	29.822 
14:25	92.7	92.7	100.0	50	71.3	3	6	270	0.00	29.822 
14:30	92.9	92.9	101.1	51	72.1	3	7	270	0.00	29.824 
14:35	92.9	92.9	99.9	49	70.9	3	7	270	0.00	29.824 
14:40	93.2	93.2	101.1	50	71.7	3	7	270	0.00	29.824 
14:45	93.2	93.2	101.1	50	71.7	2	6	270	0.00	29.824 
14:50	93.4	93.4	100.3	48	70.7	3	6	270	0.00	29.824 
14:55	93.6	93.6	101.4	49	71.5	2	4	270	0.00	29.824 
15:00	93.8	93.8	101.2	48	71.1	2	4	270	0.00	29.820 
15:05	93.8	93.8	102.4	50	72.3	2	6	248	0.00	29.820 
15:10	94.3	94.3	101.0	46	70.3	2	5	270	0.00	29.820 
15:15	93.4	93.4	99.2	46	69.5	4	9	270	0.00	29.827 
15:20	93.4	93.4	99.2	46	69.5	3	7	270	0.00	29.827 
15:25	93.8	93.8	99.4	45	69.2	2	4	248	0.00	29.827 
15:30	94.3	94.3	99.3	43	68.3	3	6	248	0.00	29.834 
15:35	93.8	93.8	96.8	40	65.8	5	10	270	0.00	29.834 
15:40	94.0	94.0	97.2	40	65.9	3	7	270	0.00	29.834 
15:45	94.3	94.3	97.7	40	66.2	3	7	270	0.00	29.840 
15:50	94.5	94.5	97.6	39	65.7	3	6	248	0.00	29.840 
15:55	94.0	94.0	96.7	39	65.2	5	9	270	0.00	29.840 
16:00	94.0	94.0	97.2	40	65.9	3	7	270	0.00	29.839 
16:05	94.3	94.3	97.2	39	65.5	3	7	270	0.00	29.839 
16:10	94.5	94.5	97.6	39	65.7	3	7	248	0.00	29.839 
16:15	94.3	94.3	97.2	39	65.5	4	7	270	0.00	29.841 
16:20	94.0	94.0	97.2	40	65.9	4	9	270	0.00	29.841 
16:25	93.8	93.8	98.3	43	67.9	3	7	270	0.00	29.841 
16:30	93.6	93.6	98.0	43	67.7	4	7	270	0.00	29.849 
16:35	93.6	93.6	98.5	44	68.4	4	9	270	0.00	29.849 
16:40	93.8	93.8	98.3	43	67.9	2	6	270	0.00	29.849 
16:45	93.4	93.4	98.1	44	68.2	3	6	270	0.00	29.850 
16:50	93.2	93.2	97.7	44	68.0	3	6	270	0.00	29.850 
16:55	93.4	93.4	98.1	44	68.2	3	6	270	0.00	29.850 
17:00	93.4	93.4	98.1	44	68.2	2	5	270	0.00	29.855 
17:05	92.9	92.9	97.2	44	67.7	2	4	270	0.00	29.855 
17:10	93.2	93.2	98.8	46	69.3	1	4	270	0.00	29.855 
17:15	93.2	93.2	96.2	41	65.9	3	6	292	0.00	29.858 
17:20	93.2	93.2	97.2	43	67.3	2	4	270	0.00	29.858 
17:25	93.4	93.4	98.6	45	68.8	2	5	292	0.00	29.858 
17:30	93.2	93.2	97.7	44	68.0	3	6	270	0.00	29.864 
17:35	92.9	92.9	97.2	44	67.7	3	6	248	0.00	29.864 
17:40	92.7	92.7	97.3	45	68.2	3	6	270	0.00	29.864 
17:45	92.7	92.7	96.8	44	67.5	4	7	270	0.00	29.870 
17:50	92.5	92.5	96.4	44	67.4	3	7	270	0.00	29.870 
17:55	92.5	92.5	96.9	45	68.0	3	6	270	0.00	29.870 
18:00	92.3	92.3	96.1	44	67.2	3	7	270	0.00	29.871 
18:05	92.3	92.3	96.5	45	67.8	2	5	270	0.00	29.871 
18:10	92.3	92.3	96.1	44	67.2	3	6	270	0.00	29.871 
18:15	91.8	91.8	94.3	42	65.4	3	11	270	0.00	29.872 
18:20	91.6	91.6	93.9	42	65.2	4	10	270	0.00	29.872 
18:25	91.4	91.4	94.0	43	65.7	4	6	292	0.00	29.872 
18:30	91.4	91.4	94.0	43	65.7	3	6	270	0.00	29.867 
18:35	91.4	91.4	94.0	43	65.7	3	6	270	0.00	29.867 
18:40	91.2	91.2	95.5	47	68.1	2	5	270	0.00	29.867 
18:45	91.0	91.0	95.1	47	67.9	2	5	270	0.00	29.865 
18:50	90.7	90.7	95.9	50	69.5	2	5	270	0.00	29.865 
18:55	90.7	90.7	95.9	50	69.5	1	4	270	0.00	29.865 
19:00	90.5	90.5	95.5	50	69.3	2	5	292	0.00	29.856 
19:05	90.1	90.1	95.7	52	70.1	2	5	270	0.00	29.856 
19:10	89.7	89.7	95.4	53	70.3	1	4	270	0.00	29.856 
19:15	89.0	89.0	94.0	53	69.6	1	3	270	0.00	29.841 
19:20	88.8	88.8	94.1	54	70.0	0	1	292	0.00	29.841 
19:25	88.4	88.4	92.9	53	69.1	1	3	292	0.00	29.841 
19:30	88.0	88.0	92.2	53	68.7	1	3	292	0.00	29.844 
19:35	87.8	87.8	91.8	53	68.5	1	2	292	0.00	29.844 
19:40	87.6	87.6	91.5	53	68.3	0	1	292	0.00	29.844 
19:45	87.4	87.4	91.1	53	68.1	0	1	292	0.00	29.832 
19:50	87.2	87.2	91.1	54	68.5	0	1	292	0.00	29.832 
19:55	86.7	86.7	90.3	54	68.0	0	1	292	0.00	29.832 
20:00	86.5	86.5	89.9	54	67.8	0	1	292	0.00	29.827 
20:05	86.3	86.3	90.2	56	68.7	0	0	---	0.00	29.827 
20:10	86.1	86.1	89.9	56	68.5	0	0	---	0.00	29.827 
20:15	85.9	85.9	89.9	57	68.9	0	1	292	0.00	29.841 
20:20	85.9	85.9	89.9	57	68.9	0	1	292	0.00	29.841 
20:25	85.9	85.9	89.9	57	68.9	0	1	292	0.00	29.841 
20:30	85.7	85.7	89.9	58	69.2	0	1	292	0.00	29.839 
20:35	85.7	85.7	90.5	60	70.2	0	3	248	0.00	29.839 
20:40	84.9	84.9	89.4	61	69.9	3	10	248	0.00	29.839 
20:45	83.0	83.0	86.9	64	69.5	2	5	270	0.00	29.864 
20:50	82.0	82.0	86.0	68	70.4	1	4	248	0.00	29.864 
20:55	81.2	81.2	85.2	71	70.9	2	6	270	0.00	29.864 
21:00	80.5	80.5	84.5	75	71.8	1	4	248	0.00	29.891 
21:05	79.8	79.8	83.6	78	72.3	2	6	270	0.00	29.891 
21:10	79.0	79.0	82.3	81	72.7	2	6	270	0.00	29.891 
21:15	78.3	78.3	81.0	84	73.1	2	8	270	0.00	29.875 
21:20	77.7	77.7	79.8	85	72.8	1	3	248	0.00	29.875 
21:25	77.4	77.4	79.1	87	73.2	1	3	248	0.00	29.875 
21:30	77.0	77.0	78.3	88	73.2	1	3	248	0.00	29.892 
21:35	76.7	76.7	77.6	89	73.2	1	5	248	0.01	29.892 
21:40	76.5	76.5	77.1	90	73.3	0	2	270	0.00	29.892 
21:45	76.3	76.3	76.6	91	73.5	1	3	270	0.00	29.914 
21:50	76.1	76.1	76.1	91	73.3	1	2	270	0.01	29.914 
21:55	76.0	76.0	75.9	91	73.2	1	3	270	0.00	29.914 
22:00	75.3	75.3	74.5	91	72.5	1	3	315	0.02	29.940 
22:05	74.4	74.4	74.4	91	71.6	1	4	270	0.01	29.940 
22:10	73.7	73.7	73.7	91	70.9	2	4	270	0.02	29.940 
22:15	73.2	73.2	73.2	92	70.7	1	2	270	0.02	29.941 
22:20	73.0	73.0	73.0	92	70.5	1	3	270	0.00	29.941 
22:25	72.7	72.7	72.7	92	70.2	1	3	270	0.02	29.941 
22:30	72.7	72.7	72.7	93	70.6	0	2	270	0.01	29.949 
22:35	72.5	72.5	72.5	93	70.4	0	2	270	0.02	29.949 
22:40	72.3	72.3	72.3	93	70.2	1	3	270	0.02	29.949 
22:45	72.5	72.5	72.5	94	70.7	0	1	270	0.01	29.955 
22:50	72.5	72.5	72.5	94	70.7	0	2	270	0.02	29.955 
22:55	72.5	72.5	72.5	94	70.7	0	1	270	0.01	29.955 
23:00	72.5	72.5	72.5	94	70.7	0	1	270	0.02	29.958 
23:05	72.5	72.5	72.5	94	70.7	0	0	---	0.01	29.958 
23:10	72.5	72.5	72.5	95	71.0	0	1	270	0.00	29.958 
23:15	72.5	72.5	72.5	95	71.0	0	2	270	0.00	29.936 
23:20	72.5	72.5	72.5	95	71.0	0	2	270	0.01	29.936 
23:25	72.5	72.5	72.5	95	71.0	0	2	270	0.00	29.936 
23:30	72.3	72.3	72.3	95	70.8	0	1	270	0.00	29.924 
23:35	72.3	72.3	72.3	95	70.8	0	1	270	0.00	29.924 
23:40	72.3	72.3	72.3	95	70.8	0	0	---	0.01	29.924 
23:45	72.3	72.3	72.3	95	70.8	0	0	---	0.01	29.901 
23:50	72.1	72.1	72.1	95	70.6	0	2	270	0.00	29.901 
23:55	72.3	72.3	72.3	95	70.8	0	2	270	0.00	29.901 

CoCoRaHS
IN-AL-39
A2 Web Hosting
Creative Commons License
GoDaddy
search engine by freefind advanced

loaded 2018-11-19 19:42:54 • last modified 2010-11-18 10:43:29
Privacy PolicyDisclaimer
• wx.awcolley.com is powered by PmWiki v.2002016 •
• all content (unless otherwise noted) © 2018 A W Colley